sensor_id;sensor_type;location;lat;lon;timestamp;pressure;altitude;pressure_sealevel;temperature;humidity
24892;BME280;12954;50.688;10.908;2022-09-09T00:00:29;95201.91;;;13.98;59.46
24892;BME280;12954;50.688;10.908;2022-09-09T00:03:05;95193.72;;;13.89;59.57
24892;BME280;12954;50.688;10.908;2022-09-09T00:05:45;95204.09;;;13.87;59.63
24892;BME280;12954;50.688;10.908;2022-09-09T00:08:22;95219.75;;;13.90;59.81
24892;BME280;12954;50.688;10.908;2022-09-09T00:10:58;95183.41;;;13.69;59.76
24892;BME280;12954;50.688;10.908;2022-09-09T00:13:30;95206.69;;;13.92;59.69
24892;BME280;12954;50.688;10.908;2022-09-09T00:16:09;95214.31;;;13.90;59.85
24892;BME280;12954;50.688;10.908;2022-09-09T00:18:53;95205.38;;;13.89;59.82
24892;BME280;12954;50.688;10.908;2022-09-09T00:21:31;95217.16;;;13.85;60.00
24892;BME280;12954;50.688;10.908;2022-09-09T00:24:04;95213.72;;;13.93;59.83
24892;BME280;12954;50.688;10.908;2022-09-09T00:26:40;95217.34;;;13.88;60.02
24892;BME280;12954;50.688;10.908;2022-09-09T00:29:19;95207.78;;;13.91;59.93
24892;BME280;12954;50.688;10.908;2022-09-09T00:31:54;95207.16;;;13.94;59.90
24892;BME280;12954;50.688;10.908;2022-09-09T00:34:26;95205.25;;;13.95;60.00
24892;BME280;12954;50.688;10.908;2022-09-09T00:36:56;95201.44;;;13.96;59.93
24892;BME280;12954;50.688;10.908;2022-09-09T00:39:34;95204.78;;;13.92;59.88
24892;BME280;12954;50.688;10.908;2022-09-09T00:42:14;95199.16;;;13.89;60.07
24892;BME280;12954;50.688;10.908;2022-09-09T00:44:59;95212.34;;;13.82;60.33
24892;BME280;12954;50.688;10.908;2022-09-09T00:47:39;95192.44;;;13.64;60.53
24892;BME280;12954;50.688;10.908;2022-09-09T00:50:17;95213.28;;;13.77;60.51
24892;BME280;12954;50.688;10.908;2022-09-09T00:52:59;95214.09;;;13.78;60.57
24892;BME280;12954;50.688;10.908;2022-09-09T00:55:36;95215.19;;;13.77;60.60
24892;BME280;12954;50.688;10.908;2022-09-09T00:58:08;95217.41;;;13.75;60.50
24892;BME280;12954;50.688;10.908;2022-09-09T01:00:43;95204.47;;;13.72;60.57
24892;BME280;12954;50.688;10.908;2022-09-09T01:03:22;95209.50;;;13.65;60.55
24892;BME280;12954;50.688;10.908;2022-09-09T01:06:00;95192.91;;;13.58;60.71
24892;BME280;12954;50.688;10.908;2022-09-09T01:11:35;95203.81;;;13.53;60.97
24892;BME280;12954;50.688;10.908;2022-09-09T01:14:14;95198.31;;;13.44;61.16
24892;BME280;12954;50.688;10.908;2022-09-09T01:16:45;95197.91;;;13.51;61.25
24892;BME280;12954;50.688;10.908;2022-09-09T01:19:22;95192.72;;;13.54;60.90
24892;BME280;12954;50.688;10.908;2022-09-09T01:21:58;95196.63;;;13.48;61.09
24892;BME280;12954;50.688;10.908;2022-09-09T01:24:35;95187.88;;;13.51;61.00
24892;BME280;12954;50.688;10.908;2022-09-09T01:27:09;95173.16;;;13.44;60.95
24892;BME280;12954;50.688;10.908;2022-09-09T01:29:39;95174.69;;;13.36;60.72
24892;BME280;12954;50.688;10.908;2022-09-09T01:32:39;95193.72;;;13.45;60.75
24892;BME280;12954;50.688;10.908;2022-09-09T01:35:11;95195.81;;;13.48;60.84
24892;BME280;12954;50.688;10.908;2022-09-09T01:37:42;95204.25;;;13.46;60.62
24892;BME280;12954;50.688;10.908;2022-09-09T01:40:10;95196.91;;;13.47;60.49
24892;BME280;12954;50.688;10.908;2022-09-09T01:42:40;95197.41;;;13.49;60.33
24892;BME280;12954;50.688;10.908;2022-09-09T01:45:09;95198.31;;;13.58;59.88
24892;BME280;12954;50.688;10.908;2022-09-09T01:47:38;95196.81;;;13.52;60.06
24892;BME280;12954;50.688;10.908;2022-09-09T01:50:08;95195.91;;;13.56;59.87
24892;BME280;12954;50.688;10.908;2022-09-09T01:52:38;95195.91;;;13.56;59.69
24892;BME280;12954;50.688;10.908;2022-09-09T01:55:08;95156.75;;;13.26;59.53
24892;BME280;12954;50.688;10.908;2022-09-09T01:57:41;95196.41;;;13.45;59.75
24892;BME280;12954;50.688;10.908;2022-09-09T02:00:16;95190.38;;;13.48;59.78
24892;BME280;12954;50.688;10.908;2022-09-09T02:02:51;95165.06;;;13.30;59.61
24892;BME280;12954;50.688;10.908;2022-09-09T02:05:34;95199.50;;;13.52;59.54
24892;BME280;12954;50.688;10.908;2022-09-09T02:08:08;95197.41;;;13.49;59.57
24892;BME280;12954;50.688;10.908;2022-09-09T02:10:42;95181.09;;;13.40;59.52
24892;BME280;12954;50.688;10.908;2022-09-09T02:13:15;95191.00;;;13.45;59.66
24892;BME280;12954;50.688;10.908;2022-09-09T02:15:49;95195.13;;;13.42;59.68
24892;BME280;12954;50.688;10.908;2022-09-09T02:18:24;95198.78;;;13.38;59.80
24892;BME280;12954;50.688;10.908;2022-09-09T02:20:54;95204.06;;;13.43;59.48
24892;BME280;12954;50.688;10.908;2022-09-09T02:23:24;95201.34;;;13.43;59.55
24892;BME280;12954;50.688;10.908;2022-09-09T02:25:54;95204.00;;;13.34;59.75
24892;BME280;12954;50.688;10.908;2022-09-09T02:28:28;95204.00;;;13.34;59.91
24892;BME280;12954;50.688;10.908;2022-09-09T02:30:58;95203.84;;;13.17;60.22
24892;BME280;12954;50.688;10.908;2022-09-09T02:33:29;95207.44;;;13.26;60.04
24892;BME280;12954;50.688;10.908;2022-09-09T02:36:01;95205.44;;;13.18;60.23
24892;BME280;12954;50.688;10.908;2022-09-09T02:38:35;95203.41;;;13.23;60.11
24892;BME280;12954;50.688;10.908;2022-09-09T02:41:04;95206.63;;;13.25;59.94
24892;BME280;12954;50.688;10.908;2022-09-09T02:43:35;95204.41;;;13.27;59.94
24892;BME280;12954;50.688;10.908;2022-09-09T02:46:08;95195.81;;;13.25;60.16
24892;BME280;12954;50.688;10.908;2022-09-09T02:48:47;95192.97;;;13.30;59.95
24892;BME280;12954;50.688;10.908;2022-09-09T02:51:23;95192.34;;;13.33;59.73
24892;BME280;12954;50.688;10.908;2022-09-09T02:54:02;95188.97;;;13.28;59.94
24892;BME280;12954;50.688;10.908;2022-09-09T02:56:38;95187.69;;;13.25;60.14
24892;BME280;12954;50.688;10.908;2022-09-09T02:59:09;95191.34;;;13.29;60.13
24892;BME280;12954;50.688;10.908;2022-09-09T03:01:38;95193.97;;;13.34;59.85
24892;BME280;12954;50.688;10.908;2022-09-09T03:04:07;95135.81;;;12.83;60.08
24892;BME280;12954;50.688;10.908;2022-09-09T03:06:36;95196.16;;;13.32;60.10
24892;BME280;12954;50.688;10.908;2022-09-09T03:09:04;95204.81;;;13.34;60.11
24892;BME280;12954;50.688;10.908;2022-09-09T03:11:35;95202.72;;;13.31;60.31
24892;BME280;12954;50.688;10.908;2022-09-09T03:14:03;95195.88;;;13.34;60.27
24892;BME280;12954;50.688;10.908;2022-09-09T03:16:34;95173.75;;;13.18;60.42
24892;BME280;12954;50.688;10.908;2022-09-09T03:19:02;95208.63;;;13.33;60.39
24892;BME280;12954;50.688;10.908;2022-09-09T03:21:33;95199.06;;;13.36;60.28
24892;BME280;12954;50.688;10.908;2022-09-09T03:24:01;95199.06;;;13.36;60.20
24892;BME280;12954;50.688;10.908;2022-09-09T03:26:30;95200.97;;;13.35;60.30
24892;BME280;12954;50.688;10.908;2022-09-09T03:28:59;95201.47;;;13.38;60.35
24892;BME280;12954;50.688;10.908;2022-09-09T03:31:28;95202.16;;;13.43;60.25
24892;BME280;12954;50.688;10.908;2022-09-09T03:33:58;95191.75;;;13.36;60.48
24892;BME280;12954;50.688;10.908;2022-09-09T03:36:28;95186.81;;;13.38;60.56
24892;BME280;12954;50.688;10.908;2022-09-09T03:38:56;95184.09;;;13.38;60.52
24892;BME280;12954;50.688;10.908;2022-09-09T03:41:25;95191.94;;;13.40;60.59
24892;BME280;12954;50.688;10.908;2022-09-09T03:43:54;95193.84;;;13.40;60.49
24892;BME280;12954;50.688;10.908;2022-09-09T03:46:24;95195.94;;;13.43;60.34
24892;BME280;12954;50.688;10.908;2022-09-09T03:48:53;95192.22;;;13.38;60.65
24892;BME280;12954;50.688;10.908;2022-09-09T03:51:23;95194.75;;;13.35;60.77
24892;BME280;12954;50.688;10.908;2022-09-09T03:53:52;95195.75;;;13.39;60.62
24892;BME280;12954;50.688;10.908;2022-09-09T03:56:24;95186.94;;;13.33;60.75
24892;BME280;12954;50.688;10.908;2022-09-09T03:58:53;95187.41;;;13.35;60.74
24892;BME280;12954;50.688;10.908;2022-09-09T04:01:21;95195.25;;;13.37;60.67
24892;BME280;12954;50.688;10.908;2022-09-09T04:03:50;95177.78;;;13.43;60.34
24892;BME280;12954;50.688;10.908;2022-09-09T04:06:19;95186.00;;;13.38;60.64
24892;BME280;12954;50.688;10.908;2022-09-09T04:08:49;95183.00;;;13.40;60.70
24892;BME280;12954;50.688;10.908;2022-09-09T04:11:20;95178.19;;;13.36;60.72
24892;BME280;12954;50.688;10.908;2022-09-09T04:13:48;95176.91;;;13.34;61.00
24892;BME280;12954;50.688;10.908;2022-09-09T04:16:17;95147.03;;;13.25;60.79
24892;BME280;12954;50.688;10.908;2022-09-09T04:18:46;95162.22;;;13.35;60.46
24892;BME280;12954;50.688;10.908;2022-09-09T04:21:14;95172.91;;;13.31;60.78
24892;BME280;12954;50.688;10.908;2022-09-09T04:23:42;95174.28;;;13.29;60.77
24892;BME280;12954;50.688;10.908;2022-09-09T04:26:13;95161.69;;;13.24;60.79
24892;BME280;12954;50.688;10.908;2022-09-09T04:28:41;95158.84;;;13.29;60.70
24892;BME280;12954;50.688;10.908;2022-09-09T04:31:18;95175.09;;;13.29;60.85
24892;BME280;12954;50.688;10.908;2022-09-09T04:33:48;95170.91;;;13.23;60.90
24892;BME280;12954;50.688;10.908;2022-09-09T04:36:17;95166.63;;;13.22;61.08
24892;BME280;12954;50.688;10.908;2022-09-09T04:38:48;95173.31;;;13.25;61.02
24892;BME280;12954;50.688;10.908;2022-09-09T04:41:18;95183.34;;;13.24;60.95
24892;BME280;12954;50.688;10.908;2022-09-09T04:43:46;95186.53;;;13.26;61.05
24892;BME280;12954;50.688;10.908;2022-09-09T04:46:15;95191.06;;;13.31;61.14
24892;BME280;12954;50.688;10.908;2022-09-09T04:48:43;95187.53;;;13.30;61.29
24892;BME280;12954;50.688;10.908;2022-09-09T04:51:13;95195.06;;;13.33;61.16
24892;BME280;12954;50.688;10.908;2022-09-09T04:53:42;95156.50;;;13.14;61.32
24892;BME280;12954;50.688;10.908;2022-09-09T04:56:11;95188.41;;;13.40;61.24
24892;BME280;12954;50.688;10.908;2022-09-09T04:58:42;95182.00;;;13.35;61.27
24892;BME280;12954;50.688;10.908;2022-09-09T05:01:12;95187.53;;;13.30;61.56
24892;BME280;12954;50.688;10.908;2022-09-09T05:03:42;95151.94;;;13.23;61.25
24892;BME280;12954;50.688;10.908;2022-09-09T05:06:14;95184.09;;;13.38;61.48
24892;BME280;12954;50.688;10.908;2022-09-09T05:08:43;95188.56;;;13.34;61.60
24892;BME280;12954;50.688;10.908;2022-09-09T05:11:16;95190.03;;;13.41;61.63
24892;BME280;12954;50.688;10.908;2022-09-09T05:13:51;95189.16;;;13.31;61.81
24892;BME280;12954;50.688;10.908;2022-09-09T05:16:20;95189.16;;;13.31;61.82
24892;BME280;12954;50.688;10.908;2022-09-09T05:18:49;95176.22;;;13.28;61.88
24892;BME280;12954;50.688;10.908;2022-09-09T05:21:19;95186.53;;;13.26;62.01
24892;BME280;12954;50.688;10.908;2022-09-09T05:23:49;95192.97;;;13.30;61.79
24892;BME280;12954;50.688;10.908;2022-09-09T05:26:19;95184.34;;;13.28;61.74
24892;BME280;12954;50.688;10.908;2022-09-09T05:28:50;95192.16;;;13.30;61.61
24892;BME280;12954;50.688;10.908;2022-09-09T05:31:19;95196.59;;;13.26;61.73
24892;BME280;12954;50.688;10.908;2022-09-09T05:33:48;95205.03;;;13.24;61.90
24892;BME280;12954;50.688;10.908;2022-09-09T05:36:18;95210.31;;;13.29;61.60
24892;BME280;12954;50.688;10.908;2022-09-09T05:38:47;95202.38;;;13.33;61.62
24892;BME280;12954;50.688;10.908;2022-09-09T05:41:17;95197.34;;;13.40;61.39
24892;BME280;12954;50.688;10.908;2022-09-09T05:43:47;95200.59;;;13.28;61.74
24892;BME280;12954;50.688;10.908;2022-09-09T05:46:18;95180.56;;;13.16;61.73
24892;BME280;12954;50.688;10.908;2022-09-09T05:48:48;95169.06;;;13.10;61.69
24892;BME280;12954;50.688;10.908;2022-09-09T05:51:20;95193.78;;;13.31;61.69
24892;BME280;12954;50.688;10.908;2022-09-09T05:53:49;95192.34;;;13.33;61.49
24892;BME280;12954;50.688;10.908;2022-09-09T05:56:19;95195.50;;;13.49;61.38
24892;BME280;12954;50.688;10.908;2022-09-09T05:58:49;95197.91;;;13.51;61.45
24892;BME280;12954;50.688;10.908;2022-09-09T06:01:21;95172.47;;;13.38;61.42
24892;BME280;12954;50.688;10.908;2022-09-09T06:03:50;95201.91;;;13.67;61.26
24892;BME280;12954;50.688;10.908;2022-09-09T06:06:20;95180.16;;;13.45;61.07
24892;BME280;12954;50.688;10.908;2022-09-09T06:08:52;95198.66;;;13.65;61.28
24892;BME280;12954;50.688;10.908;2022-09-09T06:11:22;95199.72;;;13.77;61.17
24892;BME280;12954;50.688;10.908;2022-09-09T06:13:51;95196.88;;;13.82;60.97
24892;BME280;12954;50.688;10.908;2022-09-09T06:16:23;95155.16;;;13.48;60.90
24892;BME280;12954;50.688;10.908;2022-09-09T06:18:53;95199.41;;;13.79;60.82
24892;BME280;12954;50.688;10.908;2022-09-09T06:21:24;95201.00;;;13.80;60.92
24892;BME280;12954;50.688;10.908;2022-09-09T06:23:53;95171.22;;;13.58;60.97
24892;BME280;12954;50.688;10.908;2022-09-09T06:26:28;95206.81;;;13.87;61.11
24892;BME280;12954;50.688;10.908;2022-09-09T06:28:58;95216.66;;;13.83;61.17
24892;BME280;12954;50.688;10.908;2022-09-09T06:31:29;95207.47;;;13.92;60.84
24892;BME280;12954;50.688;10.908;2022-09-09T06:33:58;95225.84;;;13.96;60.34
24892;BME280;12954;50.688;10.908;2022-09-09T06:36:28;95217.03;;;13.90;60.56
24892;BME280;12954;50.688;10.908;2022-09-09T06:38:58;95220.84;;;13.89;60.80
24892;BME280;12954;50.688;10.908;2022-09-09T06:41:28;95217.19;;;13.93;60.73
24892;BME280;12954;50.688;10.908;2022-09-09T06:43:57;95216.75;;;14.00;60.76
24892;BME280;12954;50.688;10.908;2022-09-09T06:46:28;95214.56;;;14.02;60.94
24892;BME280;12954;50.688;10.908;2022-09-09T06:48:58;95213.00;;;14.10;60.87
24892;BME280;12954;50.688;10.908;2022-09-09T06:51:28;95217.66;;;14.18;60.83
24892;BME280;12954;50.688;10.908;2022-09-09T06:53:58;95206.22;;;14.29;60.78
24892;BME280;12954;50.688;10.908;2022-09-09T06:56:30;95214.06;;;14.31;60.91
24892;BME280;12954;50.688;10.908;2022-09-09T06:59:00;95197.47;;;14.32;60.78
24892;BME280;12954;50.688;10.908;2022-09-09T07:01:33;95173.81;;;14.24;60.52
24892;BME280;12954;50.688;10.908;2022-09-09T07:04:03;95210.63;;;14.47;60.69
24892;BME280;12954;50.688;10.908;2022-09-09T07:06:36;95180.34;;;14.23;60.61
24892;BME280;12954;50.688;10.908;2022-09-09T07:09:06;95230.66;;;14.52;60.61
24892;BME280;12954;50.688;10.908;2022-09-09T07:11:38;95225.31;;;14.46;60.59
24892;BME280;12954;50.688;10.908;2022-09-09T07:14:08;95233.69;;;14.59;60.36
24892;BME280;12954;50.688;10.908;2022-09-09T07:16:41;95233.53;;;14.55;60.42
24892;BME280;12954;50.688;10.908;2022-09-09T07:19:10;95240.59;;;14.65;60.26
24892;BME280;12954;50.688;10.908;2022-09-09T07:21:39;95241.38;;;14.65;60.33
24892;BME280;12954;50.688;10.908;2022-09-09T07:24:08;95244.75;;;14.71;60.08
24892;BME280;12954;50.688;10.908;2022-09-09T07:26:39;95247.97;;;14.73;60.09
24892;BME280;12954;50.688;10.908;2022-09-09T07:29:08;95246.22;;;14.77;59.88
24892;BME280;12954;50.688;10.908;2022-09-09T07:31:39;95218.66;;;14.53;60.09
24892;BME280;12954;50.688;10.908;2022-09-09T07:34:09;95255.00;;;14.74;60.04
24892;BME280;12954;50.688;10.908;2022-09-09T07:36:38;95247.47;;;14.71;60.31
24892;BME280;12954;50.688;10.908;2022-09-09T07:39:11;95259.50;;;14.78;59.92
24892;BME280;12954;50.688;10.908;2022-09-09T07:41:41;95255.34;;;14.81;59.87
24892;BME280;12954;50.688;10.908;2022-09-09T07:44:12;95254.22;;;14.82;59.95
24892;BME280;12954;50.688;10.908;2022-09-09T07:46:41;95262.06;;;14.83;59.92
24892;BME280;12954;50.688;10.908;2022-09-09T07:49:11;95266.69;;;14.83;59.95
24892;BME280;12954;50.688;10.908;2022-09-09T07:51:42;95264.81;;;14.92;59.86
24892;BME280;12954;50.688;10.908;2022-09-09T07:54:13;95270.25;;;14.92;59.81
24892;BME280;12954;50.688;10.908;2022-09-09T07:56:42;95268.00;;;14.94;59.69
24892;BME280;12954;50.688;10.908;2022-09-09T07:59:10;95268.34;;;14.92;59.84
24892;BME280;12954;50.688;10.908;2022-09-09T08:01:41;95273.31;;;14.99;59.69
24892;BME280;12954;50.688;10.908;2022-09-09T08:04:13;95276.97;;;15.03;59.54
24892;BME280;12954;50.688;10.908;2022-09-09T08:06:45;95268.00;;;14.94;59.62
24892;BME280;12954;50.688;10.908;2022-09-09T08:09:15;95277.97;;;15.07;59.64
24892;BME280;12954;50.688;10.908;2022-09-09T08:11:44;95275.09;;;15.12;59.34
24892;BME280;12954;50.688;10.908;2022-09-09T08:14:13;95281.00;;;15.14;59.36
24892;BME280;12954;50.688;10.908;2022-09-09T08:16:44;95272.22;;;15.17;59.47
24892;BME280;12954;50.688;10.908;2022-09-09T08:19:15;95279.63;;;15.25;59.34
24892;BME280;12954;50.688;10.908;2022-09-09T08:21:44;95276.28;;;15.37;59.22
24892;BME280;12954;50.688;10.908;2022-09-09T08:24:13;95279.81;;;15.37;59.25
24892;BME280;12954;50.688;10.908;2022-09-09T08:26:43;95275.69;;;15.40;59.04
24892;BME280;12954;50.688;10.908;2022-09-09T08:29:12;95249.53;;;15.22;58.77
24892;BME280;12954;50.688;10.908;2022-09-09T08:31:42;95276.63;;;15.44;58.66
24892;BME280;12954;50.688;10.908;2022-09-09T08:34:11;95275.03;;;15.43;58.74
24892;BME280;12954;50.688;10.908;2022-09-09T08:36:43;95273.59;;;15.45;58.73
24892;BME280;12954;50.688;10.908;2022-09-09T08:39:13;95280.31;;;15.48;58.74
24892;BME280;12954;50.688;10.908;2022-09-09T08:41:59;95279.22;;;15.58;58.53
24892;BME280;12954;50.688;10.908;2022-09-09T08:44:41;95281.59;;;15.68;58.67
24892;BME280;12954;50.688;10.908;2022-09-09T08:47:23;95300.19;;;15.83;58.81
24892;BME280;12954;50.688;10.908;2022-09-09T08:50:11;95293.78;;;15.96;58.27
24892;BME280;12954;50.688;10.908;2022-09-09T08:52:50;95291.19;;;16.08;58.20
24892;BME280;12954;50.688;10.908;2022-09-09T08:55:33;95293.25;;;16.20;57.93
24892;BME280;12954;50.688;10.908;2022-09-09T08:58:09;95288.97;;;16.27;57.53
24892;BME280;12954;50.688;10.908;2022-09-09T09:00:48;95302.72;;;16.39;57.17
24892;BME280;12954;50.688;10.908;2022-09-09T09:03:24;95298.72;;;16.45;57.23
24892;BME280;12954;50.688;10.908;2022-09-09T09:06:09;95298.03;;;16.57;56.97
24892;BME280;12954;50.688;10.908;2022-09-09T09:08:47;95302.50;;;16.61;57.22
24892;BME280;12954;50.688;10.908;2022-09-09T09:11:19;95289.19;;;16.68;56.83
24892;BME280;12954;50.688;10.908;2022-09-09T09:13:54;95306.47;;;16.73;56.86
24892;BME280;12954;50.688;10.908;2022-09-09T09:16:27;95302.13;;;16.80;56.68
24892;BME280;12954;50.688;10.908;2022-09-09T09:18:59;95305.47;;;16.86;56.45
24892;BME280;12954;50.688;10.908;2022-09-09T09:21:34;95314.78;;;16.85;56.05
24892;BME280;12954;50.688;10.908;2022-09-09T09:24:10;95270.69;;;16.45;55.86
24892;BME280;12954;50.688;10.908;2022-09-09T09:26:48;95311.78;;;16.69;55.78
24892;BME280;12954;50.688;10.908;2022-09-09T09:29:17;95312.44;;;16.66;55.78
24892;BME280;12954;50.688;10.908;2022-09-09T09:31:50;95320.13;;;16.64;56.27
24892;BME280;12954;50.688;10.908;2022-09-09T09:34:21;95310.84;;;16.56;56.24
24892;BME280;12954;50.688;10.908;2022-09-09T09:36:54;95312.78;;;16.47;56.29
24892;BME280;12954;50.688;10.908;2022-09-09T09:39:26;95310.41;;;16.54;56.43
24892;BME280;12954;50.688;10.908;2022-09-09T09:42:17;95308.13;;;16.56;56.45
24892;BME280;12954;50.688;10.908;2022-09-09T09:44:49;95301.38;;;16.62;56.15
24892;BME280;12954;50.688;10.908;2022-09-09T09:47:19;95304.41;;;16.69;56.17
24892;BME280;12954;50.688;10.908;2022-09-09T09:49:52;95305.81;;;16.76;56.17
24892;BME280;12954;50.688;10.908;2022-09-09T09:52:22;95301.81;;;16.73;55.59
24892;BME280;12954;50.688;10.908;2022-09-09T09:54:54;95313.84;;;16.81;55.57
24892;BME280;12954;50.688;10.908;2022-09-09T09:57:26;95305.16;;;16.79;55.42
24892;BME280;12954;50.688;10.908;2022-09-09T10:00:11;95288.81;;;16.79;55.52
24892;BME280;12954;50.688;10.908;2022-09-09T10:02:42;95283.19;;;16.92;55.72
24892;BME280;12954;50.688;10.908;2022-09-09T10:05:14;95292.47;;;16.91;55.51
24892;BME280;12954;50.688;10.908;2022-09-09T10:08:00;95299.03;;;16.99;55.04
24892;BME280;12954;50.688;10.908;2022-09-09T10:10:40;95306.00;;;17.17;55.24
24892;BME280;12954;50.688;10.908;2022-09-09T10:13:19;95297.81;;;17.46;55.17
24892;BME280;12954;50.688;10.908;2022-09-09T10:15:59;95293.00;;;17.72;54.77
24892;BME280;12954;50.688;10.908;2022-09-09T10:18:47;95290.50;;;17.88;54.19
24892;BME280;12954;50.688;10.908;2022-09-09T10:21:43;95285.84;;;17.89;54.37
24892;BME280;12954;50.688;10.908;2022-09-09T10:24:36;95281.91;;;17.77;54.38
24892;BME280;12954;50.688;10.908;2022-09-09T10:27:16;95289.34;;;17.68;54.15
24892;BME280;12954;50.688;10.908;2022-09-09T10:29:59;95288.19;;;17.69;54.19
24892;BME280;12954;50.688;10.908;2022-09-09T10:32:45;95287.28;;;17.65;53.16
24892;BME280;12954;50.688;10.908;2022-09-09T10:35:26;95289.78;;;17.50;52.71
24892;BME280;12954;50.688;10.908;2022-09-09T10:38:10;95280.84;;;17.41;53.07
24892;BME280;12954;50.688;10.908;2022-09-09T10:43:44;95272.19;;;17.68;52.06
24892;BME280;12954;50.688;10.908;2022-09-09T10:46:22;95268.72;;;17.79;50.65
24892;BME280;12954;50.688;10.908;2022-09-09T10:49:03;95267.59;;;17.81;51.10
24892;BME280;12954;50.688;10.908;2022-09-09T10:51:40;95270.78;;;17.83;50.90
24892;BME280;12954;50.688;10.908;2022-09-09T10:54:36;95266.66;;;17.76;50.94
24892;BME280;12954;50.688;10.908;2022-09-09T10:57:13;95266.44;;;17.82;50.25
24892;BME280;12954;50.688;10.908;2022-09-09T10:59:49;95248.22;;;17.73;50.44
24892;BME280;12954;50.688;10.908;2022-09-09T11:02:22;95263.94;;;17.76;50.20
24892;BME280;12954;50.688;10.908;2022-09-09T11:04:58;95249.94;;;17.99;50.43
24892;BME280;12954;50.688;10.908;2022-09-09T11:07:34;95254.03;;;18.25;50.16
24892;BME280;12954;50.688;10.908;2022-09-09T11:10:17;95267.72;;;18.38;50.50
24892;BME280;12954;50.688;10.908;2022-09-09T11:12:49;95258.09;;;18.52;49.43
24892;BME280;12954;50.688;10.908;2022-09-09T11:15:25;95258.47;;;18.63;49.04
24892;BME280;12954;50.688;10.908;2022-09-09T11:17:59;95256.56;;;18.75;49.28
24892;BME280;12954;50.688;10.908;2022-09-09T11:20:29;95254.09;;;18.95;49.04
24892;BME280;12954;50.688;10.908;2022-09-09T11:23:02;95256.63;;;19.12;48.46
24892;BME280;12954;50.688;10.908;2022-09-09T11:25:34;95252.63;;;19.21;48.14
24892;BME280;12954;50.688;10.908;2022-09-09T11:28:14;95256.63;;;19.24;47.29
24892;BME280;12954;50.688;10.908;2022-09-09T11:30:56;95268.00;;;19.14;47.26
24892;BME280;12954;50.688;10.908;2022-09-09T11:33:42;95269.94;;;19.01;47.01
24892;BME280;12954;50.688;10.908;2022-09-09T11:36:30;95259.13;;;18.80;47.88
24892;BME280;12954;50.688;10.908;2022-09-09T11:39:15;95252.94;;;18.71;47.76
24892;BME280;12954;50.688;10.908;2022-09-09T11:41:51;95245.31;;;18.65;47.85
24892;BME280;12954;50.688;10.908;2022-09-09T11:44:26;95245.91;;;18.82;47.94
24892;BME280;12954;50.688;10.908;2022-09-09T11:46:56;95237.25;;;18.93;46.99
24892;BME280;12954;50.688;10.908;2022-09-09T11:49:29;95217.75;;;18.82;46.77
24892;BME280;12954;50.688;10.908;2022-09-09T11:52:11;95240.19;;;19.00;46.43
24892;BME280;12954;50.688;10.908;2022-09-09T11:54:47;95250.44;;;18.91;46.00
24892;BME280;12954;50.688;10.908;2022-09-09T11:57:26;95238.16;;;18.84;46.09
24892;BME280;12954;50.688;10.908;2022-09-09T11:59:59;95250.44;;;18.78;46.47
24892;BME280;12954;50.688;10.908;2022-09-09T12:02:29;95246.69;;;18.71;46.74
24892;BME280;12954;50.688;10.908;2022-09-09T12:05:02;95245.59;;;18.63;46.80
24892;BME280;12954;50.688;10.908;2022-09-09T12:07:37;95247.44;;;18.59;46.59
24892;BME280;12954;50.688;10.908;2022-09-09T12:10:21;95257.97;;;18.49;46.79
24892;BME280;12954;50.688;10.908;2022-09-09T12:12:51;95244.78;;;18.51;46.97
24892;BME280;12954;50.688;10.908;2022-09-09T12:15:27;95248.91;;;18.57;46.96
24892;BME280;12954;50.688;10.908;2022-09-09T12:17:58;95257.97;;;18.49;47.28
24892;BME280;12954;50.688;10.908;2022-09-09T12:20:34;95266.66;;;18.51;47.50
24892;BME280;12954;50.688;10.908;2022-09-09T12:23:20;95249.91;;;18.52;47.33
24892;BME280;12954;50.688;10.908;2022-09-09T12:26:22;95263.81;;;18.59;47.57
24892;BME280;12954;50.688;10.908;2022-09-09T12:29:02;95253.75;;;18.84;47.31
24892;BME280;12954;50.688;10.908;2022-09-09T12:31:38;95272.56;;;19.10;47.11
24892;BME280;12954;50.688;10.908;2022-09-09T12:34:15;95249.22;;;19.36;46.80
24892;BME280;12954;50.688;10.908;2022-09-09T12:36:48;95253.66;;;19.53;46.19
24892;BME280;12954;50.688;10.908;2022-09-09T12:39:30;95247.25;;;19.61;44.95
24892;BME280;12954;50.688;10.908;2022-09-09T12:42:00;95244.75;;;19.56;45.04
24892;BME280;12954;50.688;10.908;2022-09-09T12:44:30;95249.13;;;19.45;44.61
24892;BME280;12954;50.688;10.908;2022-09-09T12:47:01;95255.44;;;19.37;43.08
24892;BME280;12954;50.688;10.908;2022-09-09T12:49:35;95264.81;;;19.24;43.87
24892;BME280;12954;50.688;10.908;2022-09-09T12:52:07;95254.56;;;19.09;44.17
24892;BME280;12954;50.688;10.908;2022-09-09T12:54:37;95265.06;;;19.07;44.15
24892;BME280;12954;50.688;10.908;2022-09-09T12:57:09;95260.94;;;19.01;44.48
24892;BME280;12954;50.688;10.908;2022-09-09T12:59:40;95263.00;;;19.04;44.75
24892;BME280;12954;50.688;10.908;2022-09-09T13:02:19;95225.41;;;18.88;44.78
24892;BME280;12954;50.688;10.908;2022-09-09T13:04:49;95254.09;;;18.95;45.29
24892;BME280;12954;50.688;10.908;2022-09-09T13:07:18;95226.06;;;18.73;45.92
24892;BME280;12954;50.688;10.908;2022-09-09T13:09:49;95242.22;;;18.78;46.03
24892;BME280;12954;50.688;10.908;2022-09-09T13:12:19;95237.47;;;18.87;46.13
24892;BME280;12954;50.688;10.908;2022-09-09T13:14:51;95228.59;;;18.91;45.92
24892;BME280;12954;50.688;10.908;2022-09-09T13:17:23;95232.22;;;18.82;46.35
24892;BME280;12954;50.688;10.908;2022-09-09T13:19:53;95236.66;;;18.87;46.35
24892;BME280;12954;50.688;10.908;2022-09-09T13:22:30;95234.53;;;18.93;46.04
24892;BME280;12954;50.688;10.908;2022-09-09T13:25:02;95237.25;;;18.93;46.18
24892;BME280;12954;50.688;10.908;2022-09-09T13:27:33;95227.78;;;19.02;46.03